PWSweather.com
Personal Weather Stations
Station Observations
WESTON01
WestonSuperMareGB BS22 8RT

WestonSuperMareGB BS22 8RT

Lat: 51.351508, Lon: -2.933373

Elevation: 15

Station Type: Fine Offset WH1080

http://www.westonweather.co.uk

High Low Average
Temperature 64.7°F18.2°C 52.3°F11.3°C 56.8°F13.8°C
Dew Point 52.2°F11.2°C 45.0°F7.2°C 48.8°F9.3°C
Winds 12.7 mph 20.4 kmh 0.9 mph 1.4 kmh 6.0 mph SW9.7 kmh SW
Wind Gusts 17.6 mph28.3 kmh 2.7 mph4.3 kmh 9.0 mph14.5 kmh
Humidity 88% 57% 75%
Pressure 30.15 in1021.0 mb 29.95 in1014.2 mb -
Precipitation 0.00 in0.0 mm - -
Hour Temp Dew Point Humidity Winds Wind Gusts Pressure Precip Precip Rate Daily Precip Total
12:00 AM 56.0°F13.3°C 49.3°F9.6°C 78% 9.6 mph W15.4 kmh W 16.4 mph26.4 kmh 29.95 in1014.2 mb 0.00 in0.0 mm 0.00 in0.0 mm 0.00 in0.0 mm
12:05 AM 56.0°F13.3°C 49.3°F9.6°C 78% 9.1 mph WNW14.6 kmh WNW 14.6 mph23.5 kmh 29.95 in1014.2 mb 0.00 in0.0 mm 0.00 in0.0 mm 0.00 in0.0 mm
12:10 AM 56.0°F13.3°C 49.3°F9.6°C 78% 8.5 mph W13.7 kmh W 14.6 mph23.5 kmh 29.95 in1014.2 mb 0.00 in0.0 mm 0.00 in0.0 mm 0.00 in0.0 mm
12:15 AM 55.8°F13.2°C 49.1°F9.5°C 78% 8.2 mph W13.2 kmh W 14.0 mph22.5 kmh 29.95 in1014.2 mb 0.00 in0.0 mm 0.00 in0.0 mm 0.00 in0.0 mm
12:20 AM 55.8°F13.2°C 49.1°F9.5°C 78% 10.8 mph W17.4 kmh W 14.0 mph22.5 kmh 29.95 in1014.2 mb 0.00 in0.0 mm 0.00 in0.0 mm 0.00 in0.0 mm
12:25 AM 55.7°F13.2°C 48.9°F9.4°C 78% 9.5 mph W15.3 kmh W 14.0 mph22.5 kmh 29.95 in1014.2 mb 0.00 in0.0 mm 0.00 in0.0 mm 0.00 in0.0 mm
12:30 AM 55.7°F13.2°C 49.3°F9.6°C 79% 7.6 mph W12.2 kmh W 14.0 mph22.5 kmh 29.95 in1014.2 mb 0.00 in0.0 mm 0.00 in0.0 mm 0.00 in0.0 mm
12:35 AM 55.5°F13.1°C 49.1°F9.5°C 79% 7.1 mph W11.4 kmh W 10.7 mph17.2 kmh 29.95 in1014.2 mb 0.00 in0.0 mm 0.00 in0.0 mm 0.00 in0.0 mm
12:40 AM 55.5°F13.1°C 49.1°F9.5°C 79% 7.0 mph W11.3 kmh W 10.4 mph16.7 kmh 29.95 in1014.2 mb 0.00 in0.0 mm 0.00 in0.0 mm 0.00 in0.0 mm
12:45 AM 55.5°F13.1°C 49.1°F9.5°C 79% 8.0 mph W12.9 kmh W 11.3 mph18.2 kmh 29.98 in1015.2 mb 0.00 in0.0 mm 0.00 in0.0 mm 0.00 in0.0 mm
12:50 AM 55.7°F13.2°C 49.3°F9.6°C 79% 9.8 mph W15.8 kmh W 16.7 mph26.9 kmh 29.98 in1015.2 mb 0.00 in0.0 mm 0.00 in0.0 mm 0.00 in0.0 mm
12:55 AM 55.7°F13.2°C 48.9°F9.4°C 78% 9.9 mph W15.9 kmh W 16.7 mph26.9 kmh 29.98 in1015.2 mb 0.00 in0.0 mm 0.00 in0.0 mm 0.00 in0.0 mm
01:00 AM 55.7°F13.2°C 48.9°F9.4°C 78% 8.2 mph W13.2 kmh W 12.5 mph20.1 kmh 29.98 in1015.2 mb 0.00 in0.0 mm 0.00 in0.0 mm 0.00 in0.0 mm
01:05 AM 55.8°F13.2°C 49.4°F9.7°C 79% 9.4 mph WNW15.1 kmh WNW 17.3 mph27.8 kmh 29.98 in1015.2 mb 0.00 in0.0 mm 0.00 in0.0 mm 0.00 in0.0 mm
01:10 AM 55.8°F13.2°C 49.1°F9.5°C 78% 10.3 mph WNW16.6 kmh WNW 17.3 mph27.8 kmh 29.98 in1015.2 mb 0.00 in0.0 mm 0.00 in0.0 mm 0.00 in0.0 mm
01:15 AM 55.8°F13.2°C 49.1°F9.5°C 78% 10.7 mph W17.2 kmh W 16.4 mph26.4 kmh 29.98 in1015.2 mb 0.00 in0.0 mm 0.00 in0.0 mm 0.00 in0.0 mm
01:20 AM 55.8°F13.2°C 49.1°F9.5°C 78% 10.8 mph W17.4 kmh W 16.4 mph26.4 kmh 29.98 in1015.2 mb 0.00 in0.0 mm 0.00 in0.0 mm 0.00 in0.0 mm
01:25 AM 55.8°F13.2°C 49.1°F9.5°C 78% 8.4 mph W13.5 kmh W 10.4 mph16.7 kmh 29.98 in1015.2 mb 0.00 in0.0 mm 0.00 in0.0 mm 0.00 in0.0 mm
01:30 AM 55.8°F13.2°C 49.1°F9.5°C 78% 7.0 mph W11.3 kmh W 10.4 mph16.7 kmh 29.98 in1015.2 mb 0.00 in0.0 mm 0.00 in0.0 mm 0.00 in0.0 mm
01:35 AM 55.7°F13.2°C 48.9°F9.4°C 78% 8.1 mph W13.0 kmh W 13.4 mph21.6 kmh 29.98 in1015.2 mb 0.00 in0.0 mm 0.00 in0.0 mm 0.00 in0.0 mm
01:40 AM 55.7°F13.2°C 48.9°F9.4°C 78% 8.8 mph W14.2 kmh W 13.4 mph21.6 kmh 29.98 in1015.2 mb 0.00 in0.0 mm 0.00 in0.0 mm 0.00 in0.0 mm
01:45 AM 55.7°F13.2°C 48.9°F9.4°C 78% 7.8 mph W12.6 kmh W 11.3 mph18.2 kmh 29.98 in1015.2 mb 0.00 in0.0 mm 0.00 in0.0 mm 0.00 in0.0 mm
01:50 AM 55.7°F13.2°C 48.9°F9.4°C 78% 8.2 mph W13.2 kmh W 11.3 mph18.2 kmh 29.98 in1015.2 mb 0.00 in0.0 mm 0.00 in0.0 mm 0.00 in0.0 mm
01:55 AM 55.7°F13.2°C 48.9°F9.4°C 78% 7.6 mph W12.2 kmh W 11.3 mph18.2 kmh 29.98 in1015.2 mb 0.00 in0.0 mm 0.00 in0.0 mm 0.00 in0.0 mm
02:00 AM 55.7°F13.2°C 48.9°F9.4°C 78% 7.9 mph W12.7 kmh W 15.2 mph24.5 kmh 29.98 in1015.2 mb 0.00 in0.0 mm 0.00 in0.0 mm 0.00 in0.0 mm
02:05 AM 55.7°F13.2°C 48.6°F9.2°C 77% 10.3 mph W16.6 kmh W 15.2 mph24.5 kmh 29.98 in1015.2 mb 0.00 in0.0 mm 0.00 in0.0 mm 0.00 in0.0 mm
02:10 AM 55.7°F13.2°C 48.9°F9.4°C 78% 10.9 mph W17.5 kmh W 17.6 mph28.3 kmh 29.98 in1015.2 mb 0.00 in0.0 mm 0.00 in0.0 mm 0.00 in0.0 mm
02:15 AM 55.7°F13.2°C 48.6°F9.2°C 77% 11.0 mph W17.7 kmh W 17.6 mph28.3 kmh 29.98 in1015.2 mb 0.00 in0.0 mm 0.00 in0.0 mm 0.00 in0.0 mm
02:20 AM 55.7°F13.2°C 48.9°F9.4°C 78% 9.2 mph W14.8 kmh W 12.8 mph20.6 kmh 29.98 in1015.2 mb 0.00 in0.0 mm 0.00 in0.0 mm 0.00 in0.0 mm
02:25 AM 55.7°F13.2°C 48.9°F9.4°C 78% 7.9 mph W12.7 kmh W 10.7 mph17.2 kmh 29.98 in1015.2 mb 0.00 in0.0 mm 0.00 in0.0 mm 0.00 in0.0 mm
02:30 AM 55.8°F13.2°C 49.1°F9.5°C 78% 9.7 mph WNW15.6 kmh WNW 16.4 mph26.4 kmh 29.98 in1015.2 mb 0.00 in0.0 mm 0.00 in0.0 mm 0.00 in0.0 mm
02:35 AM 55.8°F13.2°C 49.1°F9.5°C 78% 12.7 mph WNW20.4 kmh WNW 17.3 mph27.8 kmh 29.98 in1015.2 mb 0.00 in0.0 mm 0.00 in0.0 mm 0.00 in0.0 mm
02:40 AM 55.7°F13.2°C 48.9°F9.4°C 78% 10.9 mph WNW17.5 kmh WNW 17.3 mph27.8 kmh 29.98 in1015.2 mb 0.00 in0.0 mm 0.00 in0.0 mm 0.00 in0.0 mm
02:45 AM 55.7°F13.2°C 48.9°F9.4°C 78% 9.2 mph W14.8 kmh W 14.6 mph23.5 kmh 29.98 in1015.2 mb 0.00 in0.0 mm 0.00 in0.0 mm 0.00 in0.0 mm
02:50 AM 55.7°F13.2°C 48.9°F9.4°C 78% 9.0 mph W14.5 kmh W 14.6 mph23.5 kmh 29.98 in1015.2 mb 0.00 in0.0 mm 0.00 in0.0 mm 0.00 in0.0 mm
02:55 AM 55.7°F13.2°C 49.3°F9.6°C 79% 8.2 mph W13.2 kmh W 14.6 mph23.5 kmh 29.98 in1015.2 mb 0.00 in0.0 mm 0.00 in0.0 mm 0.00 in0.0 mm
03:00 AM 55.7°F13.2°C 49.3°F9.6°C 79% 8.4 mph W13.5 kmh W 11.6 mph18.7 kmh 29.98 in1015.2 mb 0.00 in0.0 mm 0.00 in0.0 mm 0.00 in0.0 mm
03:05 AM 55.7°F13.2°C 49.3°F9.6°C 79% 7.7 mph W12.4 kmh W 10.7 mph17.2 kmh 29.98 in1015.2 mb 0.00 in0.0 mm 0.00 in0.0 mm 0.00 in0.0 mm
03:10 AM 55.7°F13.2°C 49.3°F9.6°C 79% 7.5 mph W12.1 kmh W 10.7 mph17.2 kmh 29.98 in1015.2 mb 0.00 in0.0 mm 0.00 in0.0 mm 0.00 in0.0 mm
03:15 AM 55.7°F13.2°C 49.3°F9.6°C 79% 10.7 mph W17.2 kmh W 17.3 mph27.8 kmh 30.01 in1016.3 mb 0.00 in0.0 mm 0.00 in0.0 mm 0.00 in0.0 mm
03:20 AM 55.8°F13.2°C 49.4°F9.7°C 79% 11.3 mph WSW18.2 kmh WSW 17.3 mph27.8 kmh 30.01 in1016.3 mb 0.00 in0.0 mm 0.00 in0.0 mm 0.00 in0.0 mm
03:25 AM 56.0°F13.3°C 49.3°F9.6°C 78% 10.7 mph WSW17.2 kmh WSW 14.3 mph23.0 kmh 30.01 in1016.3 mb 0.00 in0.0 mm 0.00 in0.0 mm 0.00 in0.0 mm
03:30 AM 56.0°F13.3°C 49.6°F9.8°C 79% 9.7 mph WSW15.6 kmh WSW 14.3 mph23.0 kmh 29.98 in1015.2 mb 0.00 in0.0 mm 0.00 in0.0 mm 0.00 in0.0 mm
03:35 AM 55.8°F13.2°C 49.4°F9.7°C 79% 8.2 mph WSW13.2 kmh WSW 10.4 mph16.7 kmh 29.98 in1015.2 mb 0.00 in0.0 mm 0.00 in0.0 mm 0.00 in0.0 mm
03:40 AM 55.5°F13.1°C 49.1°F9.5°C 79% 6.7 mph WSW10.8 kmh WSW 8.3 mph13.4 kmh 29.98 in1015.2 mb 0.00 in0.0 mm 0.00 in0.0 mm 0.00 in0.0 mm
03:45 AM 55.3°F12.9°C 48.9°F9.4°C 79% 5.9 mph WSW9.5 kmh WSW 10.1 mph16.3 kmh 30.01 in1016.3 mb 0.00 in0.0 mm 0.00 in0.0 mm 0.00 in0.0 mm
03:50 AM 55.0°F12.8°C 48.6°F9.2°C 79% 5.8 mph WSW9.3 kmh WSW 10.1 mph16.3 kmh 30.01 in1016.3 mb 0.00 in0.0 mm 0.00 in0.0 mm 0.00 in0.0 mm
03:55 AM 54.6°F12.6°C 48.2°F9.0°C 79% 5.0 mph SW8.0 kmh SW 7.4 mph11.9 kmh 30.01 in1016.3 mb 0.00 in0.0 mm 0.00 in0.0 mm 0.00 in0.0 mm
04:00 AM 54.4°F12.4°C 48.0°F8.9°C 79% 4.1 mph SW6.6 kmh SW 6.2 mph10.0 kmh 30.01 in1016.3 mb 0.00 in0.0 mm 0.00 in0.0 mm 0.00 in0.0 mm
04:05 AM 53.9°F12.2°C 47.8°F8.8°C 80% 4.9 mph SW7.9 kmh SW 8.0 mph12.9 kmh 30.01 in1016.3 mb 0.00 in0.0 mm 0.00 in0.0 mm 0.00 in0.0 mm
04:10 AM 53.9°F12.2°C 48.2°F9.0°C 81% 4.8 mph SW7.7 kmh SW 8.0 mph12.9 kmh 30.01 in1016.3 mb 0.00 in0.0 mm 0.00 in0.0 mm 0.00 in0.0 mm
04:15 AM 53.9°F12.2°C 48.2°F9.0°C 81% 4.6 mph WSW7.4 kmh WSW 8.6 mph13.8 kmh 30.01 in1016.3 mb 0.00 in0.0 mm 0.00 in0.0 mm 0.00 in0.0 mm
04:20 AM 53.5°F11.9°C 47.8°F8.8°C 81% 4.9 mph WSW7.9 kmh WSW 8.6 mph13.8 kmh 30.01 in1016.3 mb 0.00 in0.0 mm 0.00 in0.0 mm 0.00 in0.0 mm
04:25 AM 53.3°F11.8°C 48.0°F8.9°C 82% 4.8 mph SW7.7 kmh SW 8.0 mph12.9 kmh 30.01 in1016.3 mb 0.00 in0.0 mm 0.00 in0.0 mm 0.00 in0.0 mm
04:30 AM 53.5°F11.9°C 48.1°F8.9°C 82% 5.1 mph SSW8.2 kmh SSW 7.7 mph12.4 kmh 30.01 in1016.3 mb 0.00 in0.0 mm 0.00 in0.0 mm 0.00 in0.0 mm
04:35 AM 53.0°F11.7°C 47.6°F8.7°C 82% 3.9 mph SSW6.3 kmh SSW 7.7 mph12.4 kmh 30.01 in1016.3 mb 0.00 in0.0 mm 0.00 in0.0 mm 0.00 in0.0 mm
04:40 AM 52.6°F11.4°C 47.3°F8.5°C 82% 3.3 mph SW5.3 kmh SW 7.7 mph12.4 kmh 30.01 in1016.3 mb 0.00 in0.0 mm 0.00 in0.0 mm 0.00 in0.0 mm
04:45 AM 52.6°F11.4°C 47.3°F8.5°C 82% 3.3 mph SW5.3 kmh SW 5.1 mph8.2 kmh 30.01 in1016.3 mb 0.00 in0.0 mm 0.00 in0.0 mm 0.00 in0.0 mm
04:50 AM 52.4°F11.3°C 47.4°F8.6°C 83% 3.1 mph SSW5.0 kmh SSW 5.1 mph8.2 kmh 30.01 in1016.3 mb 0.00 in0.0 mm 0.00 in0.0 mm 0.00 in0.0 mm
04:55 AM 52.4°F11.3°C 47.4°F8.6°C 83% 3.6 mph S5.8 kmh S 10.7 mph17.2 kmh 30.01 in1016.3 mb 0.00 in0.0 mm 0.00 in0.0 mm 0.00 in0.0 mm
05:00 AM 52.6°F11.4°C 47.9°F8.8°C 84% 4.2 mph SW6.8 kmh SW 10.7 mph17.2 kmh 30.04 in1017.3 mb 0.00 in0.0 mm 0.00 in0.0 mm 0.00 in0.0 mm
05:05 AM 52.8°F11.6°C 48.1°F8.9°C 84% 4.9 mph W7.9 kmh W 8.3 mph13.4 kmh 30.04 in1017.3 mb 0.00 in0.0 mm 0.00 in0.0 mm 0.00 in0.0 mm
05:10 AM 53.0°F11.7°C 48.3°F9.1°C 84% 4.4 mph W7.1 kmh W 8.3 mph13.4 kmh 30.04 in1017.3 mb 0.00 in0.0 mm 0.00 in0.0 mm 0.00 in0.0 mm
05:15 AM 53.2°F11.8°C 48.4°F9.1°C 84% 5.4 mph WSW8.7 kmh WSW 9.8 mph15.8 kmh 30.04 in1017.3 mb 0.00 in0.0 mm 0.00 in0.0 mm 0.00 in0.0 mm
05:20 AM 53.3°F11.8°C 48.6°F9.2°C 84% 7.0 mph WSW11.3 kmh WSW 9.8 mph15.8 kmh 30.04 in1017.3 mb 0.00 in0.0 mm 0.00 in0.0 mm 0.00 in0.0 mm
05:25 AM 53.7°F12.1°C 49.0°F9.4°C 84% 6.1 mph SW9.8 kmh SW 9.5 mph15.3 kmh 30.04 in1017.3 mb 0.00 in0.0 mm 0.00 in0.0 mm 0.00 in0.0 mm
05:30 AM 53.7°F12.1°C 49.0°F9.4°C 84% 5.9 mph WSW9.5 kmh WSW 8.0 mph12.9 kmh 30.04 in1017.3 mb 0.00 in0.0 mm 0.00 in0.0 mm 0.00 in0.0 mm
05:35 AM 53.9°F12.2°C 49.1°F9.5°C 84% 5.4 mph WSW8.7 kmh WSW 8.0 mph12.9 kmh 30.04 in1017.3 mb 0.00 in0.0 mm 0.00 in0.0 mm 0.00 in0.0 mm
05:40 AM 53.9°F12.2°C 49.1°F9.5°C 84% 4.0 mph WSW6.4 kmh WSW 6.2 mph10.0 kmh 30.04 in1017.3 mb 0.00 in0.0 mm 0.00 in0.0 mm 0.00 in0.0 mm
05:45 AM 53.9°F12.2°C 49.1°F9.5°C 84% 3.7 mph WSW6.0 kmh WSW 5.4 mph8.7 kmh 30.04 in1017.3 mb 0.00 in0.0 mm 0.00 in0.0 mm 0.00 in0.0 mm
05:50 AM 53.9°F12.2°C 49.1°F9.5°C 84% 3.7 mph SW6.0 kmh SW 5.4 mph8.7 kmh 30.04 in1017.3 mb 0.00 in0.0 mm 0.00 in0.0 mm 0.00 in0.0 mm
05:55 AM 53.9°F12.2°C 49.1°F9.5°C 84% 3.2 mph WSW5.1 kmh WSW 5.4 mph8.7 kmh 30.04 in1017.3 mb 0.00 in0.0 mm 0.00 in0.0 mm 0.00 in0.0 mm
06:00 AM 53.7°F12.1°C 49.0°F9.4°C 84% 3.7 mph SW6.0 kmh SW 7.7 mph12.4 kmh 30.04 in1017.3 mb 0.00 in0.0 mm 0.00 in0.0 mm 0.00 in0.0 mm
06:05 AM 53.3°F11.8°C 48.3°F9.1°C 83% 4.4 mph SSW7.1 kmh SSW 7.7 mph12.4 kmh 30.04 in1017.3 mb 0.00 in0.0 mm 0.00 in0.0 mm 0.00 in0.0 mm
06:10 AM 53.3°F11.8°C 48.3°F9.1°C 83% 4.5 mph SSW7.2 kmh SSW 6.2 mph10.0 kmh 30.04 in1017.3 mb 0.00 in0.0 mm 0.00 in0.0 mm 0.00 in0.0 mm
06:15 AM 52.8°F11.6°C 47.8°F8.8°C 83% 4.4 mph SSW7.1 kmh SSW 7.7 mph12.4 kmh 30.07 in1018.3 mb 0.00 in0.0 mm 0.00 in0.0 mm 0.00 in0.0 mm
06:20 AM 52.6°F11.4°C 47.6°F8.7°C 83% 3.5 mph SSW5.6 kmh SSW 7.7 mph12.4 kmh 30.07 in1018.3 mb 0.00 in0.0 mm 0.00 in0.0 mm 0.00 in0.0 mm
06:25 AM 52.4°F11.3°C 47.4°F8.6°C 83% 3.2 mph SW5.1 kmh SW 5.4 mph8.7 kmh 30.07 in1018.3 mb 0.00 in0.0 mm 0.00 in0.0 mm 0.00 in0.0 mm
06:30 AM 52.3°F11.3°C 47.6°F8.7°C 84% 4.1 mph WSW6.6 kmh WSW 5.4 mph8.7 kmh 30.07 in1018.3 mb 0.00 in0.0 mm 0.00 in0.0 mm 0.00 in0.0 mm
06:35 AM 52.3°F11.3°C 47.6°F8.7°C 84% 4.8 mph SW7.7 kmh SW 6.2 mph10.0 kmh 30.07 in1018.3 mb 0.00 in0.0 mm 0.00 in0.0 mm 0.00 in0.0 mm
06:40 AM 52.3°F11.3°C 47.6°F8.7°C 84% 4.2 mph SW6.8 kmh SW 6.2 mph10.0 kmh 30.07 in1018.3 mb 0.00 in0.0 mm 0.00 in0.0 mm 0.00 in0.0 mm
06:45 AM 52.3°F11.3°C 47.6°F8.7°C 84% 3.7 mph SW6.0 kmh SW 6.2 mph10.0 kmh 30.07 in1018.3 mb 0.00 in0.0 mm 0.00 in0.0 mm 0.00 in0.0 mm
06:50 AM 52.3°F11.3°C 47.6°F8.7°C 84% 4.0 mph SW6.4 kmh SW 6.2 mph10.0 kmh 30.07 in1018.3 mb 0.00 in0.0 mm 0.00 in0.0 mm 0.00 in0.0 mm
06:55 AM 52.3°F11.3°C 47.6°F8.7°C 84% 3.9 mph SW6.3 kmh SW 6.5 mph10.5 kmh 30.07 in1018.3 mb 0.00 in0.0 mm 0.00 in0.0 mm 0.00 in0.0 mm
07:00 AM 52.3°F11.3°C 47.6°F8.7°C 84% 3.8 mph SW6.1 kmh SW 6.5 mph10.5 kmh 30.07 in1018.3 mb 0.00 in0.0 mm 0.00 in0.0 mm 0.00 in0.0 mm
07:05 AM 52.3°F11.3°C 47.6°F8.7°C 84% 3.9 mph WSW6.3 kmh WSW 5.7 mph9.2 kmh 30.07 in1018.3 mb 0.00 in0.0 mm 0.00 in0.0 mm 0.00 in0.0 mm
07:10 AM 52.3°F11.3°C 47.6°F8.7°C 84% 3.4 mph WSW5.5 kmh WSW 4.8 mph7.7 kmh 30.07 in1018.3 mb 0.00 in0.0 mm 0.00 in0.0 mm 0.00 in0.0 mm
07:15 AM 52.3°F11.3°C 47.6°F8.7°C 84% 3.3 mph W5.3 kmh W 4.8 mph7.7 kmh 30.07 in1018.3 mb 0.00 in0.0 mm 0.00 in0.0 mm 0.00 in0.0 mm
07:20 AM 52.3°F11.3°C 47.9°F8.8°C 85% 3.8 mph WSW6.1 kmh WSW 4.5 mph7.2 kmh 30.07 in1018.3 mb 0.00 in0.0 mm 0.00 in0.0 mm 0.00 in0.0 mm
07:25 AM 52.3°F11.3°C 47.9°F8.8°C 85% 3.4 mph W5.5 kmh W 4.5 mph7.2 kmh 30.07 in1018.3 mb 0.00 in0.0 mm 0.00 in0.0 mm 0.00 in0.0 mm
07:30 AM 52.3°F11.3°C 47.9°F8.8°C 85% 3.4 mph W5.5 kmh W 5.7 mph9.2 kmh 30.07 in1018.3 mb 0.00 in0.0 mm 0.00 in0.0 mm 0.00 in0.0 mm
07:35 AM 52.3°F11.3°C 47.9°F8.8°C 85% 2.9 mph W4.7 kmh W 5.7 mph9.2 kmh 30.07 in1018.3 mb 0.00 in0.0 mm 0.00 in0.0 mm 0.00 in0.0 mm
07:40 AM 52.3°F11.3°C 47.9°F8.8°C 85% 2.0 mph SW3.2 kmh SW 5.7 mph9.2 kmh 30.07 in1018.3 mb 0.00 in0.0 mm 0.00 in0.0 mm 0.00 in0.0 mm
07:45 AM 52.3°F11.3°C 47.9°F8.8°C 85% 2.7 mph SSW4.3 kmh SSW 5.7 mph9.2 kmh 30.07 in1018.3 mb 0.00 in0.0 mm 0.00 in0.0 mm 0.00 in0.0 mm
07:50 AM 52.3°F11.3°C 48.2°F9.0°C 86% 3.3 mph SSW5.3 kmh SSW 5.7 mph9.2 kmh 30.07 in1018.3 mb 0.00 in0.0 mm 0.00 in0.0 mm 0.00 in0.0 mm
07:55 AM 52.3°F11.3°C 48.2°F9.0°C 86% 3.5 mph SSW5.6 kmh SSW 4.8 mph7.7 kmh 30.07 in1018.3 mb 0.00 in0.0 mm 0.00 in0.0 mm 0.00 in0.0 mm
08:00 AM 52.3°F11.3°C 48.2°F9.0°C 86% 3.4 mph SSW5.5 kmh SSW 4.8 mph7.7 kmh 30.07 in1018.3 mb 0.00 in0.0 mm 0.00 in0.0 mm 0.00 in0.0 mm
08:05 AM 52.4°F11.3°C 48.4°F9.1°C 86% 2.8 mph SSW4.5 kmh SSW 4.8 mph7.7 kmh 30.07 in1018.3 mb 0.00 in0.0 mm 0.00 in0.0 mm 0.00 in0.0 mm
08:10 AM 52.4°F11.3°C 48.4°F9.1°C 86% 1.4 mph SW2.3 kmh SW 4.8 mph7.7 kmh 30.07 in1018.3 mb 0.00 in0.0 mm 0.00 in0.0 mm 0.00 in0.0 mm
08:15 AM 52.6°F11.4°C 48.9°F9.4°C 87% 1.5 mph SW2.4 kmh SW 5.7 mph9.2 kmh 30.09 in1019.0 mb 0.00 in0.0 mm 0.00 in0.0 mm 0.00 in0.0 mm
08:20 AM 53.2°F11.8°C 49.4°F9.7°C 87% 2.8 mph WSW4.5 kmh WSW 5.7 mph9.2 kmh 30.09 in1019.0 mb 0.00 in0.0 mm 0.00 in0.0 mm 0.00 in0.0 mm
08:25 AM 53.5°F11.9°C 50.0°F10.0°C 88% 4.2 mph W6.8 kmh W 8.0 mph12.9 kmh 30.09 in1019.0 mb 0.00 in0.0 mm 0.00 in0.0 mm 0.00 in0.0 mm
08:30 AM 54.0°F12.2°C 50.3°F10.2°C 87% 5.0 mph WSW8.0 kmh WSW 8.0 mph12.9 kmh 30.09 in1019.0 mb 0.00 in0.0 mm 0.00 in0.0 mm 0.00 in0.0 mm
08:35 AM 54.2°F12.3°C 50.4°F10.2°C 87% 4.6 mph WSW7.4 kmh WSW 8.0 mph12.9 kmh 30.09 in1019.0 mb 0.00 in0.0 mm 0.00 in0.0 mm 0.00 in0.0 mm
08:40 AM 55.1°F12.8°C 51.0°F10.6°C 86% 4.4 mph SW7.1 kmh SW 5.7 mph9.2 kmh 30.09 in1019.0 mb 0.00 in0.0 mm 0.00 in0.0 mm 0.00 in0.0 mm
08:45 AM 55.5°F13.1°C 51.1°F10.6°C 85% 5.9 mph SW9.5 kmh SW 10.1 mph16.3 kmh 30.09 in1019.0 mb 0.00 in0.0 mm 0.00 in0.0 mm 0.00 in0.0 mm
08:50 AM 56.0°F13.3°C 51.3°F10.7°C 84% 6.9 mph WSW11.1 kmh WSW 10.1 mph16.3 kmh 30.09 in1019.0 mb 0.00 in0.0 mm 0.00 in0.0 mm 0.00 in0.0 mm
08:55 AM 56.2°F13.4°C 51.4°F10.8°C 84% 6.0 mph W9.7 kmh W 8.0 mph12.9 kmh 30.09 in1019.0 mb 0.00 in0.0 mm 0.00 in0.0 mm 0.00 in0.0 mm
09:00 AM 56.4°F13.6°C 51.6°F10.9°C 84% 5.7 mph WSW9.2 kmh WSW 8.3 mph13.4 kmh 30.09 in1019.0 mb 0.00 in0.0 mm 0.00 in0.0 mm 0.00 in0.0 mm
09:05 AM 56.8°F13.8°C 51.6°F10.9°C 83% 6.4 mph WSW10.3 kmh WSW 8.9 mph14.3 kmh 30.09 in1019.0 mb 0.00 in0.0 mm 0.00 in0.0 mm 0.00 in0.0 mm
09:10 AM 56.8°F13.8°C 51.6°F10.9°C 83% 7.4 mph W11.9 kmh W 9.8 mph15.8 kmh 30.09 in1019.0 mb 0.00 in0.0 mm 0.00 in0.0 mm 0.00 in0.0 mm
09:15 AM 56.8°F13.8°C 51.3°F10.7°C 82% 9.5 mph W15.3 kmh W 14.3 mph23.0 kmh 30.09 in1019.0 mb 0.00 in0.0 mm 0.00 in0.0 mm 0.00 in0.0 mm
09:20 AM 56.8°F13.8°C 51.3°F10.7°C 82% 8.5 mph WSW13.7 kmh WSW 14.3 mph23.0 kmh 30.09 in1019.0 mb 0.00 in0.0 mm 0.00 in0.0 mm 0.00 in0.0 mm
09:25 AM 56.8°F13.8°C 51.3°F10.7°C 82% 6.9 mph W11.1 kmh W 10.7 mph17.2 kmh 30.09 in1019.0 mb 0.00 in0.0 mm 0.00 in0.0 mm 0.00 in0.0 mm
09:30 AM 56.9°F13.8°C 51.2°F10.7°C 81% 6.2 mph WSW10.0 kmh WSW 10.7 mph17.2 kmh 30.09 in1019.0 mb 0.00 in0.0 mm 0.00 in0.0 mm 0.00 in0.0 mm
09:35 AM 57.1°F13.9°C 51.3°F10.7°C 81% 7.1 mph SW11.4 kmh SW 12.8 mph20.6 kmh 30.09 in1019.0 mb 0.00 in0.0 mm 0.00 in0.0 mm 0.00 in0.0 mm
09:40 AM 57.7°F14.3°C 51.9°F11.1°C 81% 7.0 mph SW11.3 kmh SW 12.8 mph20.6 kmh 30.09 in1019.0 mb 0.00 in0.0 mm 0.00 in0.0 mm 0.00 in0.0 mm
09:45 AM 58.0°F14.4°C 51.9°F11.1°C 80% 7.1 mph WSW11.4 kmh WSW 9.5 mph15.3 kmh 30.12 in1020.0 mb 0.00 in0.0 mm 0.00 in0.0 mm 0.00 in0.0 mm
09:50 AM 58.4°F14.7°C 51.9°F11.1°C 79% 6.8 mph WSW10.9 kmh WSW 9.5 mph15.3 kmh 30.12 in1020.0 mb 0.00 in0.0 mm 0.00 in0.0 mm 0.00 in0.0 mm
09:55 AM 58.7°F14.8°C 52.2°F11.2°C 79% 6.2 mph WSW10.0 kmh WSW 9.5 mph15.3 kmh 30.12 in1020.0 mb 0.00 in0.0 mm 0.00 in0.0 mm 0.00 in0.0 mm
10:00 AM 58.7°F14.8°C 51.9°F11.1°C 78% 6.3 mph SW10.1 kmh SW 9.5 mph15.3 kmh 30.12 in1020.0 mb 0.00 in0.0 mm 0.00 in0.0 mm 0.00 in0.0 mm
10:05 AM 58.5°F14.7°C 51.4°F10.8°C 77% 6.8 mph WSW10.9 kmh WSW 9.5 mph15.3 kmh 30.12 in1020.0 mb 0.00 in0.0 mm 0.00 in0.0 mm 0.00 in0.0 mm
10:10 AM 58.4°F14.7°C 50.8°F10.4°C 76% 9.2 mph W14.8 kmh W 16.4 mph26.4 kmh 30.12 in1020.0 mb 0.00 in0.0 mm 0.00 in0.0 mm 0.00 in0.0 mm
10:15 AM 58.2°F14.6°C 50.7°F10.4°C 76% 10.1 mph W16.3 kmh W 16.4 mph26.4 kmh 30.12 in1020.0 mb 0.00 in0.0 mm 0.00 in0.0 mm 0.00 in0.0 mm
10:20 AM 58.2°F14.6°C 50.7°F10.4°C 76% 9.0 mph WSW14.5 kmh WSW 11.3 mph18.2 kmh 30.12 in1020.0 mb 0.00 in0.0 mm 0.00 in0.0 mm 0.00 in0.0 mm
10:25 AM 58.2°F14.6°C 50.7°F10.4°C 76% 8.7 mph WSW14.0 kmh WSW 12.8 mph20.6 kmh 30.12 in1020.0 mb 0.00 in0.0 mm 0.00 in0.0 mm 0.00 in0.0 mm
10:30 AM 58.7°F14.8°C 51.2°F10.7°C 76% 8.7 mph W14.0 kmh W 12.8 mph20.6 kmh 30.12 in1020.0 mb 0.00 in0.0 mm 0.00 in0.0 mm 0.00 in0.0 mm
10:35 AM 59.1°F15.1°C 51.2°F10.7°C 75% 8.0 mph WSW12.9 kmh WSW 12.8 mph20.6 kmh 30.12 in1020.0 mb 0.00 in0.0 mm 0.00 in0.0 mm 0.00 in0.0 mm
10:40 AM 59.3°F15.2°C 51.3°F10.7°C 75% 6.8 mph WSW10.9 kmh WSW 10.1 mph16.3 kmh 30.12 in1020.0 mb 0.00 in0.0 mm 0.00 in0.0 mm 0.00 in0.0 mm
10:45 AM 59.8°F15.4°C 51.5°F10.8°C 74% 6.2 mph SW10.0 kmh SW 10.1 mph16.3 kmh 30.15 in1021.0 mb 0.00 in0.0 mm 0.00 in0.0 mm 0.00 in0.0 mm
10:50 AM 59.8°F15.4°C 51.1°F10.6°C 73% 8.0 mph WSW12.9 kmh WSW 13.4 mph21.6 kmh 30.15 in1021.0 mb 0.00 in0.0 mm 0.00 in0.0 mm 0.00 in0.0 mm
10:55 AM 59.8°F15.4°C 51.1°F10.6°C 73% 10.9 mph WSW17.5 kmh WSW 13.4 mph21.6 kmh 30.15 in1021.0 mb 0.00 in0.0 mm 0.00 in0.0 mm 0.00 in0.0 mm
11:00 AM 60.0°F15.6°C 51.3°F10.7°C 73% 9.5 mph WSW15.3 kmh WSW 13.1 mph21.1 kmh 30.15 in1021.0 mb 0.00 in0.0 mm 0.00 in0.0 mm 0.00 in0.0 mm
11:05 AM 60.0°F15.6°C 51.3°F10.7°C 73% 9.1 mph WSW14.6 kmh WSW 12.5 mph20.1 kmh 30.15 in1021.0 mb 0.00 in0.0 mm 0.00 in0.0 mm 0.00 in0.0 mm
11:10 AM 59.8°F15.4°C 51.1°F10.6°C 73% 8.8 mph WSW14.2 kmh WSW 14.0 mph22.5 kmh 30.15 in1021.0 mb 0.00 in0.0 mm 0.00 in0.0 mm 0.00 in0.0 mm
11:15 AM 59.6°F15.3°C 50.6°F10.3°C 72% 7.9 mph WSW12.7 kmh WSW 14.0 mph22.5 kmh 30.15 in1021.0 mb 0.00 in0.0 mm 0.00 in0.0 mm 0.00 in0.0 mm
11:20 AM 59.5°F15.3°C 50.8°F10.4°C 73% 7.7 mph WSW12.4 kmh WSW 8.6 mph13.8 kmh 30.15 in1021.0 mb 0.00 in0.0 mm 0.00 in0.0 mm 0.00 in0.0 mm
11:25 AM 59.1°F15.1°C 50.4°F10.2°C 73% 6.6 mph WSW10.6 kmh WSW 8.0 mph12.9 kmh 30.15 in1021.0 mb 0.00 in0.0 mm 0.00 in0.0 mm 0.00 in0.0 mm
11:30 AM 59.1°F15.1°C 50.4°F10.2°C 73% 5.0 mph WSW8.0 kmh WSW 7.7 mph12.4 kmh 30.15 in1021.0 mb 0.00 in0.0 mm 0.00 in0.0 mm 0.00 in0.0 mm
11:35 AM 59.8°F15.4°C 51.1°F10.6°C 73% 5.9 mph SSW9.5 kmh SSW 10.4 mph16.7 kmh 30.15 in1021.0 mb 0.00 in0.0 mm 0.00 in0.0 mm 0.00 in0.0 mm
11:40 AM 60.5°F15.8°C 51.5°F10.8°C 72% 7.2 mph SW11.6 kmh SW 10.4 mph16.7 kmh 30.15 in1021.0 mb 0.00 in0.0 mm 0.00 in0.0 mm 0.00 in0.0 mm
11:45 AM 61.1°F16.2°C 52.0°F11.1°C 72% 7.7 mph WSW12.4 kmh WSW 10.4 mph16.7 kmh 30.15 in1021.0 mb 0.00 in0.0 mm 0.00 in0.0 mm 0.00 in0.0 mm
11:50 AM 61.3°F16.3°C 51.8°F11.0°C 71% 7.7 mph WSW12.4 kmh WSW 9.8 mph15.8 kmh 30.15 in1021.0 mb 0.00 in0.0 mm 0.00 in0.0 mm 0.00 in0.0 mm
11:55 AM 61.4°F16.3°C 51.6°F10.9°C 70% 6.6 mph SW10.6 kmh SW 8.6 mph13.8 kmh 30.15 in1021.0 mb 0.00 in0.0 mm 0.00 in0.0 mm 0.00 in0.0 mm
12:00 PM 61.8°F16.6°C 51.5°F10.8°C 69% 5.8 mph SW9.3 kmh SW 10.1 mph16.3 kmh 30.15 in1021.0 mb 0.00 in0.0 mm 0.00 in0.0 mm 0.00 in0.0 mm
12:05 PM 61.8°F16.6°C 51.5°F10.8°C 69% 6.7 mph SW10.8 kmh SW 10.7 mph17.2 kmh 30.15 in1021.0 mb 0.00 in0.0 mm 0.00 in0.0 mm 0.00 in0.0 mm
12:10 PM 61.8°F16.6°C 51.1°F10.6°C 68% 7.4 mph SW11.9 kmh SW 10.7 mph17.2 kmh 30.15 in1021.0 mb 0.00 in0.0 mm 0.00 in0.0 mm 0.00 in0.0 mm
12:15 PM 61.6°F16.4°C 50.9°F10.5°C 68% 6.8 mph SW10.9 kmh SW 10.7 mph17.2 kmh 30.15 in1021.0 mb 0.00 in0.0 mm 0.00 in0.0 mm 0.00 in0.0 mm
12:20 PM 61.6°F16.4°C 50.9°F10.5°C 68% 6.2 mph SW10.0 kmh SW 10.7 mph17.2 kmh 30.15 in1021.0 mb 0.00 in0.0 mm 0.00 in0.0 mm 0.00 in0.0 mm
12:25 PM 61.3°F16.3°C 51.0°F10.6°C 69% 7.0 mph WSW11.3 kmh WSW 10.4 mph16.7 kmh 30.15 in1021.0 mb 0.00 in0.0 mm 0.00 in0.0 mm 0.00 in0.0 mm
12:30 PM 61.4°F16.3°C 50.8°F10.4°C 68% 6.2 mph WSW10.0 kmh WSW 10.4 mph16.7 kmh 30.15 in1021.0 mb 0.00 in0.0 mm 0.00 in0.0 mm 0.00 in0.0 mm
12:35 PM 62.0°F16.7°C 51.3°F10.7°C 68% 4.8 mph WSW7.7 kmh WSW 7.4 mph11.9 kmh 30.15 in1021.0 mb 0.00 in0.0 mm 0.00 in0.0 mm 0.00 in0.0 mm
12:40 PM 62.3°F16.8°C 51.6°F10.9°C 68% 4.8 mph SW7.7 kmh SW 14.0 mph22.5 kmh 30.15 in1021.0 mb 0.00 in0.0 mm 0.00 in0.0 mm 0.00 in0.0 mm
12:45 PM 62.7°F17.1°C 51.2°F10.7°C 66% 5.7 mph SW9.2 kmh SW 14.0 mph22.5 kmh 30.15 in1021.0 mb 0.00 in0.0 mm 0.00 in0.0 mm 0.00 in0.0 mm
12:50 PM 62.9°F17.2°C 51.3°F10.7°C 66% 5.8 mph SW9.3 kmh SW 11.6 mph18.7 kmh 30.15 in1021.0 mb 0.00 in0.0 mm 0.00 in0.0 mm 0.00 in0.0 mm
12:55 PM 63.4°F17.4°C 50.6°F10.3°C 63% 5.6 mph SW9.0 kmh SW 11.6 mph18.7 kmh 30.15 in1021.0 mb 0.00 in0.0 mm 0.00 in0.0 mm 0.00 in0.0 mm
01:00 PM 63.6°F17.6°C 51.2°F10.7°C 64% 5.3 mph WSW8.5 kmh WSW 8.6 mph13.8 kmh 30.15 in1021.0 mb 0.00 in0.0 mm 0.00 in0.0 mm 0.00 in0.0 mm
01:05 PM 64.3°F17.9°C 51.4°F10.8°C 63% 6.0 mph W9.7 kmh W 8.6 mph13.8 kmh 30.15 in1021.0 mb 0.00 in0.0 mm 0.00 in0.0 mm 0.00 in0.0 mm
01:10 PM 64.0°F17.8°C 50.7°F10.4°C 62% 4.8 mph WSW7.7 kmh WSW 10.1 mph16.3 kmh 30.15 in1021.0 mb 0.00 in0.0 mm 0.00 in0.0 mm 0.00 in0.0 mm
01:15 PM 63.4°F17.4°C 50.2°F10.1°C 62% 5.6 mph WSW9.0 kmh WSW 10.1 mph16.3 kmh 30.15 in1021.0 mb 0.00 in0.0 mm 0.00 in0.0 mm 0.00 in0.0 mm
01:20 PM 63.0°F17.2°C 49.8°F9.9°C 62% 6.9 mph WSW11.1 kmh WSW 8.6 mph13.8 kmh 30.15 in1021.0 mb 0.00 in0.0 mm 0.00 in0.0 mm 0.00 in0.0 mm
01:25 PM 63.0°F17.2°C 50.2°F10.1°C 63% 6.8 mph W10.9 kmh W 8.6 mph13.8 kmh 30.15 in1021.0 mb 0.00 in0.0 mm 0.00 in0.0 mm 0.00 in0.0 mm
01:30 PM 63.6°F17.6°C 49.9°F9.9°C 61% 7.2 mph W11.6 kmh W 11.6 mph18.7 kmh 30.15 in1021.0 mb 0.00 in0.0 mm 0.00 in0.0 mm 0.00 in0.0 mm
01:35 PM 63.6°F17.6°C 49.9°F9.9°C 61% 6.5 mph WSW10.5 kmh WSW 11.6 mph18.7 kmh 30.15 in1021.0 mb 0.00 in0.0 mm 0.00 in0.0 mm 0.00 in0.0 mm
01:40 PM 64.1°F17.8°C 50.0°F10.0°C 60% 4.7 mph WSW7.6 kmh WSW 7.7 mph12.4 kmh 30.15 in1021.0 mb 0.00 in0.0 mm 0.00 in0.0 mm 0.00 in0.0 mm
01:45 PM 64.3°F17.9°C 50.1°F10.1°C 60% 6.7 mph WSW10.8 kmh WSW 10.7 mph17.2 kmh 30.15 in1021.0 mb 0.00 in0.0 mm 0.00 in0.0 mm 0.00 in0.0 mm
01:50 PM 64.3°F17.9°C 49.7°F9.8°C 59% 8.3 mph WSW13.4 kmh WSW 10.7 mph17.2 kmh 30.15 in1021.0 mb 0.00 in0.0 mm 0.00 in0.0 mm 0.00 in0.0 mm
01:55 PM 64.5°F18.1°C 49.8°F9.9°C 59% 8.8 mph W14.2 kmh W 16.7 mph26.9 kmh 30.15 in1021.0 mb 0.00 in0.0 mm 0.00 in0.0 mm 0.00 in0.0 mm
02:00 PM 64.5°F18.1°C 49.4°F9.7°C 58% 8.9 mph W14.3 kmh W 16.7 mph26.9 kmh 30.15 in1021.0 mb 0.00 in0.0 mm 0.00 in0.0 mm 0.00 in0.0 mm
02:05 PM 64.5°F18.1°C 49.4°F9.7°C 58% 8.2 mph WSW13.2 kmh WSW 10.4 mph16.7 kmh 30.15 in1021.0 mb 0.00 in0.0 mm 0.00 in0.0 mm 0.00 in0.0 mm
02:10 PM 64.3°F17.9°C 48.7°F9.3°C 57% 8.1 mph W13.0 kmh W 12.8 mph20.6 kmh 30.15 in1021.0 mb 0.00 in0.0 mm 0.00 in0.0 mm 0.00 in0.0 mm
02:15 PM 64.3°F17.9°C 48.7°F9.3°C 57% 7.4 mph WSW11.9 kmh WSW 12.8 mph20.6 kmh 30.15 in1021.0 mb 0.00 in0.0 mm 0.00 in0.0 mm 0.00 in0.0 mm
02:20 PM 64.7°F18.2°C 49.1°F9.5°C 57% 6.9 mph WSW11.1 kmh WSW 13.4 mph21.6 kmh 30.15 in1021.0 mb 0.00 in0.0 mm 0.00 in0.0 mm 0.00 in0.0 mm
02:25 PM 64.1°F17.8°C 48.6°F9.2°C 57% 7.9 mph WSW12.7 kmh WSW 13.4 mph21.6 kmh 30.15 in1021.0 mb 0.00 in0.0 mm 0.00 in0.0 mm 0.00 in0.0 mm
02:30 PM 64.0°F17.8°C 48.4°F9.1°C 57% 7.6 mph WSW12.2 kmh WSW 13.4 mph21.6 kmh 30.12 in1020.0 mb 0.00 in0.0 mm 0.00 in0.0 mm 0.00 in0.0 mm
02:35 PM 64.0°F17.8°C 48.4°F9.1°C 57% 6.6 mph WSW10.6 kmh WSW 9.8 mph15.8 kmh 30.12 in1020.0 mb 0.00 in0.0 mm 0.00 in0.0 mm 0.00 in0.0 mm
02:40 PM 63.6°F17.6°C 48.1°F8.9°C 57% 7.0 mph W11.3 kmh W 9.8 mph15.8 kmh 30.12 in1020.0 mb 0.00 in0.0 mm 0.00 in0.0 mm 0.00 in0.0 mm
02:45 PM 63.2°F17.3°C 47.7°F8.7°C 57% 7.4 mph W11.9 kmh W 10.1 mph16.3 kmh 30.12 in1020.0 mb 0.00 in0.0 mm 0.00 in0.0 mm 0.00 in0.0 mm
02:50 PM 63.0°F17.2°C 48.0°F8.9°C 58% 7.9 mph W12.7 kmh W 11.9 mph19.2 kmh 30.12 in1020.0 mb 0.00 in0.0 mm 0.00 in0.0 mm 0.00 in0.0 mm
02:55 PM 62.5°F16.9°C 47.5°F8.6°C 58% 8.4 mph WSW13.5 kmh WSW 11.9 mph19.2 kmh 30.12 in1020.0 mb 0.00 in0.0 mm 0.00 in0.0 mm 0.00 in0.0 mm
03:00 PM 62.5°F16.9°C 47.5°F8.6°C 58% 6.3 mph WSW10.1 kmh WSW 8.6 mph13.8 kmh 30.12 in1020.0 mb 0.00 in0.0 mm 0.00 in0.0 mm 0.00 in0.0 mm
03:05 PM 62.3°F16.8°C 47.4°F8.6°C 58% 6.9 mph W11.1 kmh W 13.1 mph21.1 kmh 30.12 in1020.0 mb 0.00 in0.0 mm 0.00 in0.0 mm 0.00 in0.0 mm
03:10 PM 62.0°F16.7°C 47.5°F8.6°C 59% 8.2 mph W13.2 kmh W 13.1 mph21.1 kmh 30.12 in1020.0 mb 0.00 in0.0 mm 0.00 in0.0 mm 0.00 in0.0 mm
03:15 PM 61.8°F16.6°C 47.3°F8.5°C 59% 7.7 mph W12.4 kmh W 8.3 mph13.4 kmh 30.12 in1020.0 mb 0.00 in0.0 mm 0.00 in0.0 mm 0.00 in0.0 mm
03:20 PM 61.6°F16.4°C 47.1°F8.4°C 59% 7.4 mph WNW11.9 kmh WNW 9.2 mph14.8 kmh 30.12 in1020.0 mb 0.00 in0.0 mm 0.00 in0.0 mm 0.00 in0.0 mm
03:25 PM 61.4°F16.3°C 47.4°F8.6°C 60% 6.6 mph WSW10.6 kmh WSW 9.2 mph14.8 kmh 30.12 in1020.0 mb 0.00 in0.0 mm 0.00 in0.0 mm 0.00 in0.0 mm
03:30 PM 61.3°F16.3°C 47.7°F8.7°C 61% 7.3 mph WSW11.7 kmh WSW 11.6 mph18.7 kmh 30.12 in1020.0 mb 0.00 in0.0 mm 0.00 in0.0 mm 0.00 in0.0 mm
03:35 PM 61.1°F16.2°C 47.9°F8.8°C 62% 8.2 mph WSW13.2 kmh WSW 11.6 mph18.7 kmh 30.12 in1020.0 mb 0.00 in0.0 mm 0.00 in0.0 mm 0.00 in0.0 mm
03:40 PM 60.9°F16.1°C 47.8°F8.8°C 62% 8.1 mph WSW13.0 kmh WSW 11.6 mph18.7 kmh 30.12 in1020.0 mb 0.00 in0.0 mm 0.00 in0.0 mm 0.00 in0.0 mm
03:45 PM 60.9°F16.1°C 47.8°F8.8°C 62% 6.5 mph WSW10.5 kmh WSW 10.4 mph16.7 kmh 30.12 in1020.0 mb 0.00 in0.0 mm 0.00 in0.0 mm 0.00 in0.0 mm
03:50 PM 61.1°F16.2°C 48.4°F9.1°C 63% 4.0 mph WSW6.4 kmh WSW 5.4 mph8.7 kmh 30.12 in1020.0 mb 0.00 in0.0 mm 0.00 in0.0 mm 0.00 in0.0 mm
03:55 PM 61.3°F16.3°C 48.1°F8.9°C 62% 4.4 mph W7.1 kmh W 8.0 mph12.9 kmh 30.12 in1020.0 mb 0.00 in0.0 mm 0.00 in0.0 mm 0.00 in0.0 mm
04:00 PM 61.4°F16.3°C 48.3°F9.1°C 62% 5.5 mph WSW8.9 kmh WSW 10.4 mph16.7 kmh 30.12 in1020.0 mb 0.00 in0.0 mm 0.00 in0.0 mm 0.00 in0.0 mm
04:05 PM 61.8°F16.6°C 49.1°F9.5°C 63% 5.1 mph W8.2 kmh W 10.4 mph16.7 kmh 30.12 in1020.0 mb 0.00 in0.0 mm 0.00 in0.0 mm 0.00 in0.0 mm
04:10 PM 62.0°F16.7°C 49.2°F9.6°C 63% 4.2 mph W6.8 kmh W 7.7 mph12.4 kmh 30.12 in1020.0 mb 0.00 in0.0 mm 0.00 in0.0 mm 0.00 in0.0 mm
04:15 PM 62.2°F16.8°C 49.8°F9.9°C 64% 3.6 mph WNW5.8 kmh WNW 7.7 mph12.4 kmh 30.12 in1020.0 mb 0.00 in0.0 mm 0.00 in0.0 mm 0.00 in0.0 mm
04:20 PM 62.3°F16.8°C 49.6°F9.8°C 63% 3.8 mph W6.1 kmh W 8.0 mph12.9 kmh 30.12 in1020.0 mb 0.00 in0.0 mm 0.00 in0.0 mm 0.00 in0.0 mm
04:25 PM 62.3°F16.8°C 49.6°F9.8°C 63% 4.6 mph W7.4 kmh W 8.0 mph12.9 kmh 30.12 in1020.0 mb 0.00 in0.0 mm 0.00 in0.0 mm 0.00 in0.0 mm
04:30 PM 62.3°F16.8°C 49.6°F9.8°C 63% 4.7 mph W7.6 kmh W 7.4 mph11.9 kmh 30.12 in1020.0 mb 0.00 in0.0 mm 0.00 in0.0 mm 0.00 in0.0 mm
04:35 PM 62.2°F16.8°C 49.4°F9.7°C 63% 4.5 mph WSW7.2 kmh WSW 7.4 mph11.9 kmh 30.12 in1020.0 mb 0.00 in0.0 mm 0.00 in0.0 mm 0.00 in0.0 mm
04:40 PM 61.8°F16.6°C 49.1°F9.5°C 63% 5.3 mph WSW8.5 kmh WSW 8.3 mph13.4 kmh 30.12 in1020.0 mb 0.00 in0.0 mm 0.00 in0.0 mm 0.00 in0.0 mm
04:45 PM 61.1°F16.2°C 48.8°F9.3°C 64% 5.7 mph WSW9.2 kmh WSW 8.3 mph13.4 kmh 30.12 in1020.0 mb 0.00 in0.0 mm 0.00 in0.0 mm 0.00 in0.0 mm
04:50 PM 60.7°F15.9°C 48.5°F9.2°C 64% 3.9 mph W6.3 kmh W 7.7 mph12.4 kmh 30.12 in1020.0 mb 0.00 in0.0 mm 0.00 in0.0 mm 0.00 in0.0 mm
04:55 PM 60.3°F15.7°C 48.1°F8.9°C 64% 2.6 mph WNW4.2 kmh WNW 6.5 mph10.5 kmh 30.12 in1020.0 mb 0.00 in0.0 mm 0.00 in0.0 mm 0.00 in0.0 mm
05:00 PM 59.8°F15.4°C 48.0°F8.9°C 65% 3.1 mph WNW5.0 kmh WNW 7.1 mph11.4 kmh 30.12 in1020.0 mb 0.00 in0.0 mm 0.00 in0.0 mm 0.00 in0.0 mm
05:05 PM 59.5°F15.3°C 48.1°F8.9°C 66% 3.7 mph W6.0 kmh W 7.1 mph11.4 kmh 30.12 in1020.0 mb 0.00 in0.0 mm 0.00 in0.0 mm 0.00 in0.0 mm
05:10 PM 59.1°F15.1°C 47.7°F8.7°C 66% 4.0 mph W6.4 kmh W 4.8 mph7.7 kmh 30.12 in1020.0 mb 0.00 in0.0 mm 0.00 in0.0 mm 0.00 in0.0 mm
05:15 PM 58.5°F14.7°C 47.2°F8.4°C 66% 5.0 mph WSW8.0 kmh WSW 7.7 mph12.4 kmh 30.12 in1020.0 mb 0.00 in0.0 mm 0.00 in0.0 mm 0.00 in0.0 mm
05:20 PM 58.2°F14.6°C 46.9°F8.3°C 66% 4.8 mph WSW7.7 kmh WSW 7.7 mph12.4 kmh 30.12 in1020.0 mb 0.00 in0.0 mm 0.00 in0.0 mm 0.00 in0.0 mm
05:25 PM 57.8°F14.3°C 46.5°F8.1°C 66% 4.4 mph WSW7.1 kmh WSW 5.7 mph9.2 kmh 30.12 in1020.0 mb 0.00 in0.0 mm 0.00 in0.0 mm 0.00 in0.0 mm
05:30 PM 57.7°F14.3°C 46.8°F8.2°C 67% 3.3 mph WSW5.3 kmh WSW 5.7 mph9.2 kmh 30.12 in1020.0 mb 0.00 in0.0 mm 0.00 in0.0 mm 0.00 in0.0 mm
05:35 PM 57.5°F14.2°C 46.6°F8.1°C 67% 2.3 mph WSW3.7 kmh WSW 4.8 mph7.7 kmh 30.12 in1020.0 mb 0.00 in0.0 mm 0.00 in0.0 mm 0.00 in0.0 mm
05:40 PM 57.1°F13.9°C 46.6°F8.1°C 68% 2.6 mph SW4.2 kmh SW 4.8 mph7.7 kmh 30.12 in1020.0 mb 0.00 in0.0 mm 0.00 in0.0 mm 0.00 in0.0 mm
05:45 PM 56.9°F13.8°C 46.9°F8.3°C 69% 2.1 mph SSW3.4 kmh SSW 4.5 mph7.2 kmh 30.12 in1020.0 mb 0.00 in0.0 mm 0.00 in0.0 mm 0.00 in0.0 mm
05:50 PM 56.6°F13.7°C 46.9°F8.3°C 70% 1.9 mph SSW3.1 kmh SSW 3.9 mph6.3 kmh 30.12 in1020.0 mb 0.00 in0.0 mm 0.00 in0.0 mm 0.00 in0.0 mm
05:55 PM 56.4°F13.6°C 46.7°F8.2°C 70% 2.7 mph S4.3 kmh S 4.8 mph7.7 kmh 30.12 in1020.0 mb 0.00 in0.0 mm 0.00 in0.0 mm 0.00 in0.0 mm
06:00 PM 56.0°F13.3°C 46.4°F8.0°C 70% 3.3 mph SSW5.3 kmh SSW 4.8 mph7.7 kmh 30.12 in1020.0 mb 0.00 in0.0 mm 0.00 in0.0 mm 0.00 in0.0 mm
06:05 PM 56.0°F13.3°C 46.4°F8.0°C 70% 3.6 mph SSW5.8 kmh SSW 4.5 mph7.2 kmh 30.12 in1020.0 mb 0.00 in0.0 mm 0.00 in0.0 mm 0.00 in0.0 mm
06:10 PM 55.5°F13.1°C 45.9°F7.7°C 70% 4.2 mph SSW6.8 kmh SSW 4.8 mph7.7 kmh 30.12 in1020.0 mb 0.00 in0.0 mm 0.00 in0.0 mm 0.00 in0.0 mm
06:15 PM 55.5°F13.1°C 45.9°F7.7°C 70% 4.3 mph SSW6.9 kmh SSW 5.7 mph9.2 kmh 30.12 in1020.0 mb 0.00 in0.0 mm 0.00 in0.0 mm 0.00 in0.0 mm
06:20 PM 55.3°F12.9°C 45.7°F7.6°C 70% 4.1 mph S6.6 kmh S 6.2 mph10.0 kmh 30.12 in1020.0 mb 0.00 in0.0 mm 0.00 in0.0 mm 0.00 in0.0 mm
06:25 PM 55.0°F12.8°C 45.3°F7.4°C 70% 4.4 mph SSW7.1 kmh SSW 6.2 mph10.0 kmh 30.12 in1020.0 mb 0.00 in0.0 mm 0.00 in0.0 mm 0.00 in0.0 mm
06:30 PM 54.8°F12.7°C 45.2°F7.3°C 70% 4.4 mph SSW7.1 kmh SSW 6.2 mph10.0 kmh 30.12 in1020.0 mb 0.00 in0.0 mm 0.00 in0.0 mm 0.00 in0.0 mm
06:35 PM 54.8°F12.7°C 45.5°F7.5°C 71% 4.2 mph SSW6.8 kmh SSW 5.7 mph9.2 kmh 30.12 in1020.0 mb 0.00 in0.0 mm 0.00 in0.0 mm 0.00 in0.0 mm
06:40 PM 54.8°F12.7°C 45.5°F7.5°C 71% 4.3 mph SSW6.9 kmh SSW 8.0 mph12.9 kmh 30.12 in1020.0 mb 0.00 in0.0 mm 0.00 in0.0 mm 0.00 in0.0 mm
06:45 PM 54.8°F12.7°C 45.5°F7.5°C 71% 3.9 mph SW6.3 kmh SW 8.0 mph12.9 kmh 30.12 in1020.0 mb 0.00 in0.0 mm 0.00 in0.0 mm 0.00 in0.0 mm
06:50 PM 54.8°F12.7°C 45.5°F7.5°C 71% 4.3 mph S6.9 kmh S 6.2 mph10.0 kmh 30.12 in1020.0 mb 0.00 in0.0 mm 0.00 in0.0 mm 0.00 in0.0 mm
06:55 PM 54.6°F12.6°C 45.4°F7.4°C 71% 4.1 mph S6.6 kmh S 6.2 mph10.0 kmh 30.12 in1020.0 mb 0.00 in0.0 mm 0.00 in0.0 mm 0.00 in0.0 mm
07:00 PM 54.6°F12.6°C 45.4°F7.4°C 71% 3.9 mph SSW6.3 kmh SSW 6.0 mph9.7 kmh 30.12 in1020.0 mb 0.00 in0.0 mm 0.00 in0.0 mm 0.00 in0.0 mm
07:05 PM 54.4°F12.4°C 45.2°F7.3°C 71% 3.9 mph SSW6.3 kmh SSW 6.0 mph9.7 kmh 30.12 in1020.0 mb 0.00 in0.0 mm 0.00 in0.0 mm 0.00 in0.0 mm
07:10 PM 54.2°F12.3°C 45.0°F7.2°C 71% 3.8 mph SSW6.1 kmh SSW 5.4 mph8.7 kmh 30.12 in1020.0 mb 0.00 in0.0 mm 0.00 in0.0 mm 0.00 in0.0 mm
07:15 PM 54.0°F12.2°C 45.2°F7.3°C 72% 4.3 mph SSW6.9 kmh SSW 5.7 mph9.2 kmh 30.12 in1020.0 mb 0.00 in0.0 mm 0.00 in0.0 mm 0.00 in0.0 mm
07:20 PM 54.0°F12.2°C 45.2°F7.3°C 72% 4.9 mph S7.9 kmh S 6.2 mph10.0 kmh 30.12 in1020.0 mb 0.00 in0.0 mm 0.00 in0.0 mm 0.00 in0.0 mm
07:25 PM 54.0°F12.2°C 45.6°F7.6°C 73% 5.2 mph S8.4 kmh S 7.1 mph11.4 kmh 30.12 in1020.0 mb 0.00 in0.0 mm 0.00 in0.0 mm 0.00 in0.0 mm
07:30 PM 54.0°F12.2°C 45.6°F7.6°C 73% 5.0 mph S8.0 kmh S 7.1 mph11.4 kmh 30.12 in1020.0 mb 0.00 in0.0 mm 0.00 in0.0 mm 0.00 in0.0 mm
07:35 PM 54.2°F12.3°C 45.8°F7.7°C 73% 5.4 mph S8.7 kmh S 9.5 mph15.3 kmh 30.12 in1020.0 mb 0.00 in0.0 mm 0.00 in0.0 mm 0.00 in0.0 mm
07:40 PM 54.2°F12.3°C 45.8°F7.7°C 73% 6.2 mph S10.0 kmh S 9.5 mph15.3 kmh 30.12 in1020.0 mb 0.00 in0.0 mm 0.00 in0.0 mm 0.00 in0.0 mm
07:45 PM 54.4°F12.4°C 45.9°F7.7°C 73% 7.2 mph S11.6 kmh S 8.3 mph13.4 kmh 30.12 in1020.0 mb 0.00 in0.0 mm 0.00 in0.0 mm 0.00 in0.0 mm
07:50 PM 54.6°F12.6°C 46.5°F8.1°C 74% 6.8 mph S10.9 kmh S 8.3 mph13.4 kmh 30.12 in1020.0 mb 0.00 in0.0 mm 0.00 in0.0 mm 0.00 in0.0 mm
07:55 PM 54.6°F12.6°C 46.5°F8.1°C 74% 6.6 mph SSW10.6 kmh SSW 11.3 mph18.2 kmh 30.12 in1020.0 mb 0.00 in0.0 mm 0.00 in0.0 mm 0.00 in0.0 mm
08:00 PM 54.8°F12.7°C 46.6°F8.1°C 74% 6.6 mph SSW10.6 kmh SSW 11.3 mph18.2 kmh 30.12 in1020.0 mb 0.00 in0.0 mm 0.00 in0.0 mm 0.00 in0.0 mm
08:05 PM 54.8°F12.7°C 46.6°F8.1°C 74% 5.6 mph S9.0 kmh S 9.8 mph15.8 kmh 30.12 in1020.0 mb 0.00 in0.0 mm 0.00 in0.0 mm 0.00 in0.0 mm
08:10 PM 54.8°F12.7°C 46.6°F8.1°C 74% 4.9 mph S7.9 kmh S 9.8 mph15.8 kmh 30.12 in1020.0 mb 0.00 in0.0 mm 0.00 in0.0 mm 0.00 in0.0 mm
08:15 PM 54.8°F12.7°C 46.6°F8.1°C 74% 4.9 mph S7.9 kmh S 7.7 mph12.4 kmh 30.12 in1020.0 mb 0.00 in0.0 mm 0.00 in0.0 mm 0.00 in0.0 mm
08:20 PM 54.8°F12.7°C 47.0°F8.3°C 75% 5.9 mph SSW9.5 kmh SSW 10.4 mph16.7 kmh 30.12 in1020.0 mb 0.00 in0.0 mm 0.00 in0.0 mm 0.00 in0.0 mm
08:25 PM 55.0°F12.8°C 47.2°F8.4°C 75% 6.3 mph SSW10.1 kmh SSW 10.4 mph16.7 kmh 30.12 in1020.0 mb 0.00 in0.0 mm 0.00 in0.0 mm 0.00 in0.0 mm
08:30 PM 55.0°F12.8°C 47.2°F8.4°C 75% 6.3 mph SSW10.1 kmh SSW 7.4 mph11.9 kmh 30.12 in1020.0 mb 0.00 in0.0 mm 0.00 in0.0 mm 0.00 in0.0 mm
08:35 PM 55.0°F12.8°C 47.2°F8.4°C 75% 6.0 mph SSW9.7 kmh SSW 7.4 mph11.9 kmh 30.12 in1020.0 mb 0.00 in0.0 mm 0.00 in0.0 mm 0.00 in0.0 mm
08:40 PM 55.0°F12.8°C 47.2°F8.4°C 75% 5.6 mph SSW9.0 kmh SSW 7.4 mph11.9 kmh 30.12 in1020.0 mb 0.00 in0.0 mm 0.00 in0.0 mm 0.00 in0.0 mm
08:45 PM 55.1°F12.8°C 47.3°F8.5°C 75% 7.1 mph SW11.4 kmh SW 10.1 mph16.3 kmh 30.12 in1020.0 mb 0.00 in0.0 mm 0.00 in0.0 mm 0.00 in0.0 mm
08:50 PM 55.1°F12.8°C 47.3°F8.5°C 75% 8.1 mph SSW13.0 kmh SSW 10.4 mph16.7 kmh 30.12 in1020.0 mb 0.00 in0.0 mm 0.00 in0.0 mm 0.00 in0.0 mm
08:55 PM 55.1°F12.8°C 47.3°F8.5°C 75% 6.8 mph SSW10.9 kmh SSW 10.4 mph16.7 kmh 30.12 in1020.0 mb 0.00 in0.0 mm 0.00 in0.0 mm 0.00 in0.0 mm
09:00 PM 55.1°F12.8°C 47.3°F8.5°C 75% 6.0 mph SSW9.7 kmh SSW 9.5 mph15.3 kmh 30.12 in1020.0 mb 0.00 in0.0 mm 0.00 in0.0 mm 0.00 in0.0 mm
09:05 PM 55.1°F12.8°C 47.3°F8.5°C 75% 6.9 mph SW11.1 kmh SW 11.3 mph18.2 kmh 30.12 in1020.0 mb 0.00 in0.0 mm 0.00 in0.0 mm 0.00 in0.0 mm
09:10 PM 55.1°F12.8°C 47.7°F8.7°C 76% 7.4 mph SW11.9 kmh SW 11.6 mph18.7 kmh 30.12 in1020.0 mb 0.00 in0.0 mm 0.00 in0.0 mm 0.00 in0.0 mm
09:15 PM 55.1°F12.8°C 47.7°F8.7°C 76% 8.1 mph SW13.0 kmh SW 14.3 mph23.0 kmh 30.12 in1020.0 mb 0.00 in0.0 mm 0.00 in0.0 mm 0.00 in0.0 mm
09:20 PM 55.0°F12.8°C 47.5°F8.6°C 76% 8.6 mph SW13.8 kmh SW 14.3 mph23.0 kmh 30.12 in1020.0 mb 0.00 in0.0 mm 0.00 in0.0 mm 0.00 in0.0 mm
09:25 PM 55.0°F12.8°C 47.5°F8.6°C 76% 7.9 mph SW12.7 kmh SW 13.7 mph22.0 kmh 30.12 in1020.0 mb 0.00 in0.0 mm 0.00 in0.0 mm 0.00 in0.0 mm
09:30 PM 54.8°F12.7°C 47.3°F8.5°C 76% 6.0 mph SW9.7 kmh SW 10.1 mph16.3 kmh 30.12 in1020.0 mb 0.00 in0.0 mm 0.00 in0.0 mm 0.00 in0.0 mm
09:35 PM 54.6°F12.6°C 47.5°F8.6°C 77% 4.0 mph SW6.4 kmh SW 6.5 mph10.5 kmh 30.12 in1020.0 mb 0.00 in0.0 mm 0.00 in0.0 mm 0.00 in0.0 mm
09:40 PM 54.4°F12.4°C 47.3°F8.5°C 77% 3.5 mph SSW5.6 kmh SSW 5.4 mph8.7 kmh 30.12 in1020.0 mb 0.00 in0.0 mm 0.00 in0.0 mm 0.00 in0.0 mm
09:45 PM 54.0°F12.2°C 47.3°F8.5°C 78% 1.9 mph S3.1 kmh S 5.4 mph8.7 kmh 30.12 in1020.0 mb 0.00 in0.0 mm 0.00 in0.0 mm 0.00 in0.0 mm
09:50 PM 53.9°F12.2°C 47.2°F8.4°C 78% 0.9 mph SSW1.4 kmh SSW 2.7 mph4.3 kmh 30.12 in1020.0 mb 0.00 in0.0 mm 0.00 in0.0 mm 0.00 in0.0 mm
09:55 PM 53.7°F12.1°C 47.0°F8.3°C 78% 1.4 mph S2.3 kmh S 3.9 mph6.3 kmh 30.12 in1020.0 mb 0.00 in0.0 mm 0.00 in0.0 mm 0.00 in0.0 mm
10:00 PM 53.7°F12.1°C 47.3°F8.5°C 79% 1.7 mph S2.7 kmh S 3.9 mph6.3 kmh 30.12 in1020.0 mb 0.00 in0.0 mm 0.00 in0.0 mm 0.00 in0.0 mm
10:05 PM 53.9°F12.2°C 47.8°F8.8°C 80% 2.7 mph SSW4.3 kmh SSW 5.1 mph8.2 kmh 30.12 in1020.0 mb 0.00 in0.0 mm 0.00 in0.0 mm 0.00 in0.0 mm
10:10 PM 53.9°F12.2°C 47.8°F8.8°C 80% 4.4 mph SSW7.1 kmh SSW 7.4 mph11.9 kmh 30.12 in1020.0 mb 0.00 in0.0 mm 0.00 in0.0 mm 0.00 in0.0 mm
10:15 PM 54.0°F12.2°C 48.3°F9.1°C 81% 5.6 mph SW9.0 kmh SW 9.5 mph15.3 kmh 30.12 in1020.0 mb 0.00 in0.0 mm 0.00 in0.0 mm 0.00 in0.0 mm
10:20 PM 54.0°F12.2°C 48.3°F9.1°C 81% 5.0 mph SW8.0 kmh SW 9.5 mph15.3 kmh 30.12 in1020.0 mb 0.00 in0.0 mm 0.00 in0.0 mm 0.00 in0.0 mm
10:25 PM 54.4°F12.4°C 48.7°F9.3°C 81% 5.2 mph S8.4 kmh S 7.4 mph11.9 kmh 30.12 in1020.0 mb 0.00 in0.0 mm 0.00 in0.0 mm 0.00 in0.0 mm
10:30 PM 54.4°F12.4°C 48.7°F9.3°C 81% 6.3 mph S10.1 kmh S 9.8 mph15.8 kmh 30.09 in1019.0 mb 0.00 in0.0 mm 0.00 in0.0 mm 0.00 in0.0 mm
10:35 PM 54.4°F12.4°C 48.7°F9.3°C 81% 7.1 mph S11.4 kmh S 9.8 mph15.8 kmh 30.09 in1019.0 mb 0.00 in0.0 mm 0.00 in0.0 mm 0.00 in0.0 mm
10:40 PM 54.4°F12.4°C 49.0°F9.4°C 82% 5.7 mph SSW9.2 kmh SSW 8.3 mph13.4 kmh 30.09 in1019.0 mb 0.00 in0.0 mm 0.00 in0.0 mm 0.00 in0.0 mm
10:45 PM 54.4°F12.4°C 49.0°F9.4°C 82% 4.9 mph S7.9 kmh S 8.0 mph12.9 kmh 30.09 in1019.0 mb 0.00 in0.0 mm 0.00 in0.0 mm 0.00 in0.0 mm
10:50 PM 54.4°F12.4°C 49.0°F9.4°C 82% 4.2 mph S6.8 kmh S 5.4 mph8.7 kmh 30.09 in1019.0 mb 0.00 in0.0 mm 0.00 in0.0 mm 0.00 in0.0 mm
10:55 PM 54.6°F12.6°C 49.5°F9.7°C 83% 3.9 mph SSW6.3 kmh SSW 4.8 mph7.7 kmh 30.09 in1019.0 mb 0.00 in0.0 mm 0.00 in0.0 mm 0.00 in0.0 mm
11:00 PM 54.6°F12.6°C 49.5°F9.7°C 83% 2.9 mph SSW4.7 kmh SSW 4.8 mph7.7 kmh 30.09 in1019.0 mb 0.00 in0.0 mm 0.00 in0.0 mm 0.00 in0.0 mm
11:05 PM 54.6°F12.6°C 49.5°F9.7°C 83% 1.9 mph SSE3.1 kmh SSE 3.6 mph5.8 kmh 30.09 in1019.0 mb 0.00 in0.0 mm 0.00 in0.0 mm 0.00 in0.0 mm
11:10 PM 54.6°F12.6°C 49.5°F9.7°C 83% 1.3 mph SE2.1 kmh SE 3.6 mph5.8 kmh 30.09 in1019.0 mb 0.00 in0.0 mm 0.00 in0.0 mm 0.00 in0.0 mm
11:15 PM 54.6°F12.6°C 49.9°F9.9°C 84% 1.6 mph SW2.6 kmh SW 3.9 mph6.3 kmh 30.09 in1019.0 mb 0.00 in0.0 mm 0.00 in0.0 mm 0.00 in0.0 mm
11:20 PM 54.8°F12.7°C 50.0°F10.0°C 84% 2.3 mph WSW3.7 kmh WSW 4.8 mph7.7 kmh 30.09 in1019.0 mb 0.00 in0.0 mm 0.00 in0.0 mm 0.00 in0.0 mm
11:25 PM 55.0°F12.8°C 50.2°F10.1°C 84% 3.0 mph SW4.8 kmh SW 6.5 mph10.5 kmh 30.09 in1019.0 mb 0.00 in0.0 mm 0.00 in0.0 mm 0.00 in0.0 mm
11:30 PM 55.1°F12.8°C 50.4°F10.2°C 84% 5.8 mph SSW9.3 kmh SSW 10.7 mph17.2 kmh 30.09 in1019.0 mb 0.00 in0.0 mm 0.00 in0.0 mm 0.00 in0.0 mm
11:35 PM 55.1°F12.8°C 50.7°F10.4°C 85% 6.6 mph SSW10.6 kmh SSW 10.7 mph17.2 kmh 30.09 in1019.0 mb 0.00 in0.0 mm 0.00 in0.0 mm 0.00 in0.0 mm
11:40 PM 55.1°F12.8°C 50.7°F10.4°C 85% 6.2 mph S10.0 kmh S 8.6 mph13.8 kmh 30.09 in1019.0 mb 0.00 in0.0 mm 0.00 in0.0 mm 0.00 in0.0 mm
11:45 PM 55.5°F13.1°C 51.1°F10.6°C 85% 6.1 mph SSW9.8 kmh SSW 8.6 mph13.8 kmh 30.09 in1019.0 mb 0.00 in0.0 mm 0.00 in0.0 mm 0.00 in0.0 mm
11:50 PM 55.5°F13.1°C 51.1°F10.6°C 85% 5.4 mph SSW8.7 kmh SSW 8.6 mph13.8 kmh 30.09 in1019.0 mb 0.00 in0.0 mm 0.00 in0.0 mm 0.00 in0.0 mm
11:55 PM 55.7°F13.2°C 51.2°F10.7°C 85% 5.5 mph SSW8.9 kmh SSW 7.4 mph11.9 kmh 30.09 in1019.0 mb 0.00 in0.0 mm 0.00 in0.0 mm 0.00 in0.0 mm